Aeroporto :
LOGIN :

Iscrizione | Disclaimer

   EN    FR    IT 

 










Sommario :    VFR   VFR Marginale   IFR   IFR Intensivo   IFR Molto Intensivo
Visibilità : 
Base nubi : 
>= 8 km
>= 3000ft
5 / 8 km
1000 / 3000 ft
1500m / 5 km
500 / 1000 ft
800 / 1500m
200 / 500 ft
< 800m
< 200 ft
Simboli :   Temporali  Nebbia  Neve Forte  Precipitazioni Forti  Vento > 20 kt
SIGMETs :   Varie  Temporali  Ghiacco  Turbolenza  Onda orograficha  Ceneri Vulcaniche







- Altitudine del aeroporto : 28 ft
- Codice IATA : SOZ
- Carte del aeroporto


LFKS - Solenzara

ULTIMO METAR :
  • 162000Z AUTO 28006KT CAVOK 09/03 Q1030

METARs OBSOLETI :
  • 161930Z AUTO 28005KT CAVOK 09/03 Q1029
  • 161900Z AUTO 28006KT CAVOK 09/03 Q1029
  • 161830Z AUTO 26004KT CAVOK 09/04 Q1029
  • 161800Z AUTO 27004KT CAVOK 09/04 Q1029
  • 161730Z AUTO 26004KT 230V290 CAVOK 11/05 Q1029
  • 161700Z AUTO 28004KT CAVOK 10/04 Q1029

TAF AMD TAF LFKS
Valido dal 16 a 09 ore il 17 a 09 ore UTC


160951Z 1609/1709 06005KT CAVOK
Nessun NOTAM noto per questo aeroporto.



MetMap, La meteo Aeronautica in un colpo d'occhio ! - Copyright ORBIFLY Dicembre 2007 - Disclaimer

ORBIFLY MET'MAP TEAM :

Programmazione e sviluppo : Alexandra Zaïnal
Concezione e sviluppo : Baudouin d'Aumeries
Co-Programmazione e sviluppo : Marc-Olivier Méhu
Supporto tecnico e logistico : Manuel Goepfert
Aiuto per la traduzione : Arnaldo La Scala

Contatto : metmap@orbifly.com




FONTI E CREDITI :

   NOAA